createdAt,value
2023-01-30T00:03:03.036Z,-3.8
2023-01-30T00:08:03.254Z,-3.7
2023-01-30T00:13:03.066Z,-3.8
2023-01-30T00:18:03.282Z,-3.8
2023-01-30T00:23:03.106Z,-3.7
2023-01-30T00:28:03.196Z,-3.7
2023-01-30T00:33:03.149Z,-3.6
2023-01-30T00:38:03.193Z,-3.6
2023-01-30T00:43:03.026Z,-3.5
2023-01-30T00:48:03.143Z,-3.5
2023-01-30T00:53:03.504Z,-3.3
2023-01-30T00:58:04.315Z,-3.4
2023-01-30T01:03:03.015Z,-3.3
2023-01-30T01:08:03.276Z,-3.3
2023-01-30T01:13:03.179Z,-3.1
2023-01-30T01:18:03.704Z,-2.9
2023-01-30T01:23:03.652Z,-2.8
2023-01-30T01:28:03.079Z,-2.6
2023-01-30T01:33:03.197Z,-2.6
2023-01-30T01:38:03.001Z,-2.4
2023-01-30T01:43:03.075Z,-2.4
2023-01-30T01:48:03.235Z,-2.3
2023-01-30T01:53:03.012Z,-2.3
2023-01-30T01:58:03.339Z,-2.2
2023-01-30T02:03:03.034Z,-2.2
2023-01-30T02:08:02.995Z,-1.9
2023-01-30T02:13:03.596Z,-1.9
2023-01-30T02:18:03.095Z,-1.7
2023-01-30T02:23:03.255Z,-1.6
2023-01-30T02:28:03.105Z,-1.4
2023-01-30T02:33:05.062Z,-1.3
2023-01-30T02:38:03.149Z,-1.2
2023-01-30T02:43:03.102Z,-1.3
2023-01-30T02:48:03.237Z,-1.3
2023-01-30T02:53:03.101Z,-1.1
2023-01-30T02:58:03.008Z,-1
2023-01-30T03:03:03.241Z,-0.8
2023-01-30T03:08:02.995Z,-0.8
2023-01-30T03:13:03.298Z,-0.6
2023-01-30T03:18:03.306Z,-0.5
2023-01-30T03:23:03.011Z,-0.5
2023-01-30T03:28:03.230Z,-0.6
2023-01-30T03:33:03.124Z,-0.6
2023-01-30T03:38:03.219Z,-0.6
2023-01-30T03:43:03.112Z,-0.7
2023-01-30T03:48:03.331Z,-0.7
2023-01-30T03:53:03.220Z,-0.7
2023-01-30T03:58:03.106Z,-0.6
2023-01-30T04:03:03.255Z,-0.6
2023-01-30T04:08:03.061Z,-0.6
2023-01-30T04:13:19.603Z,-0.6
2023-01-30T04:18:03.347Z,-0.5
2023-01-30T04:23:03.041Z,-0.4
2023-01-30T04:28:03.223Z,-0.4
2023-01-30T04:33:03.064Z,-0.4
2023-01-30T04:38:03.101Z,-0.3
2023-01-30T04:43:03.281Z,-0.3
2023-01-30T04:48:03.062Z,-0.3
2023-01-30T04:53:03.299Z,-0.3
2023-01-30T04:58:03.060Z,-0.3
2023-01-30T05:03:03.062Z,-0.3
2023-01-30T05:08:03.278Z,-0.4
2023-01-30T05:13:03.170Z,-0.7
2023-01-30T05:18:03.202Z,-0.9
2023-01-30T05:23:03.031Z,-0.8
2023-01-30T05:28:03.054Z,-0.9
2023-01-30T05:33:03.339Z,-0.9
2023-01-30T05:38:03.123Z,-0.9
2023-01-30T05:43:03.315Z,-0.9
2023-01-30T05:48:03.011Z,-0.8
2023-01-30T05:53:03.342Z,-0.8
2023-01-30T05:58:03.085Z,-0.7
2023-01-30T06:03:03.267Z,-0.8
2023-01-30T06:08:03.103Z,-0.7
2023-01-30T06:13:03.118Z,-0.8
2023-01-30T06:18:03.248Z,-0.7
2023-01-30T06:23:03.163Z,-0.6
2023-01-30T06:28:03.293Z,-0.6
2023-01-30T06:33:03.211Z,-0.5
2023-01-30T06:38:03.255Z,-0.4
2023-01-30T06:43:03.768Z,-0.3
2023-01-30T06:48:03.036Z,-0.4
2023-01-30T06:53:03.375Z,-0.3
2023-01-30T06:58:03.183Z,-0.3
2023-01-30T07:03:03.109Z,-0.3
2023-01-30T07:08:03.408Z,-0.2
2023-01-30T07:13:03.228Z,-0.3
2023-01-30T07:18:03.308Z,-0.2
2023-01-30T07:23:03.095Z,-0.1
2023-01-30T07:28:03.132Z,0
2023-01-30T07:33:03.309Z,0.1
2023-01-30T07:38:03.093Z,0.1
2023-01-30T07:43:03.298Z,0.1
2023-01-30T07:48:03.189Z,0.2
2023-01-30T07:53:03.142Z,0.3
2023-01-30T07:58:03.260Z,0.3
2023-01-30T08:03:03.090Z,0.3
2023-01-30T08:08:03.383Z,0.4
2023-01-30T08:13:03.157Z,0.6
2023-01-30T08:18:03.140Z,0.7
2023-01-30T08:23:03.148Z,0.8
2023-01-30T08:28:03.257Z,0.8
2023-01-30T08:33:03.128Z,0.8
2023-01-30T08:38:03.294Z,0.8
2023-01-30T08:43:03.060Z,0.8
2023-01-30T08:48:03.204Z,0.6
2023-01-30T08:53:03.155Z,0.6
2023-01-30T08:58:03.328Z,0.6
2023-01-30T09:03:03.127Z,0.6
2023-01-30T09:08:03.343Z,0.8
2023-01-30T09:13:03.187Z,0.7
2023-01-30T09:18:03.159Z,0.7
2023-01-30T09:23:03.597Z,0.6
2023-01-30T09:28:03.139Z,0.5
2023-01-30T09:33:03.310Z,0.6
2023-01-30T09:38:03.180Z,0.6
2023-01-30T09:43:03.099Z,0.6
2023-01-30T09:48:03.397Z,0.6
2023-01-30T09:53:03.362Z,0.6
2023-01-30T09:58:03.367Z,0.6
2023-01-30T10:03:03.170Z,0.7
2023-01-30T10:08:03.757Z,0.9
2023-01-30T10:13:03.579Z,0.9
2023-01-30T10:18:03.490Z,1.2
2023-01-30T10:28:03.367Z,1.4
2023-01-30T10:33:03.581Z,1.5
2023-01-30T10:38:03.120Z,1.5
2023-01-30T10:43:03.119Z,1.5
2023-01-30T10:48:03.060Z,1.6
2023-01-30T10:53:03.608Z,1.5
2023-01-30T10:58:03.127Z,1.6
2023-01-30T11:03:03.395Z,1.8
2023-01-30T11:08:03.085Z,1.8
2023-01-30T11:13:03.166Z,1.8
2023-01-30T11:18:22.069Z,1.8
2023-01-30T11:23:05.698Z,1.8
2023-01-30T11:28:03.093Z,1.8
2023-01-30T11:33:04.429Z,1.8
2023-01-30T11:38:03.215Z,1.9
2023-01-30T11:43:03.179Z,1.9
2023-01-30T11:48:04.874Z,1.9
2023-01-30T11:53:03.181Z,1.9
2023-01-30T11:58:03.850Z,1.9
2023-01-30T12:03:03.217Z,2
2023-01-30T12:08:03.327Z,2
2023-01-30T12:13:03.159Z,1.9
2023-01-30T12:18:03.172Z,2.1
2023-01-30T12:23:06.466Z,2.1
2023-01-30T12:28:03.105Z,2.1
2023-01-30T12:33:03.422Z,2.1
2023-01-30T12:38:03.178Z,2.1
2023-01-30T12:43:03.380Z,2.1
2023-01-30T12:48:03.290Z,2.3
2023-01-30T12:53:03.265Z,2.5
2023-01-30T12:58:03.144Z,2.5
2023-01-30T13:03:03.609Z,2.6
2023-01-30T13:08:03.438Z,2.6
2023-01-30T13:13:03.181Z,2.8
2023-01-30T13:18:03.534Z,3.4
2023-01-30T13:23:03.744Z,4.2
2023-01-30T13:28:03.206Z,3.4
2023-01-30T13:33:03.165Z,3.3
2023-01-30T13:38:03.608Z,3.4
2023-01-30T13:43:03.299Z,3.4
2023-01-30T13:48:03.134Z,3.3
2023-01-30T13:53:03.238Z,3.3
2023-01-30T13:58:03.276Z,3.1
2023-01-30T14:03:04.347Z,3.1
2023-01-30T14:08:03.183Z,3
2023-01-30T14:13:03.203Z,3.1
2023-01-30T14:18:03.132Z,3.1
2023-01-30T14:23:07.641Z,3.1
2023-01-30T14:28:03.125Z,2.9
2023-01-30T14:33:03.365Z,2.9
2023-01-30T14:38:03.264Z,2.9
2023-01-30T14:43:03.323Z,3.3
2023-01-30T14:48:03.229Z,3.7
2023-01-30T14:53:03.164Z,4
2023-01-30T14:58:03.129Z,4.3
2023-01-30T15:03:03.231Z,4.7
2023-01-30T15:08:03.132Z,5
2023-01-30T15:13:03.148Z,4.1
2023-01-30T15:18:08.125Z,3.4
2023-01-30T15:23:04.723Z,3.3
2023-01-30T15:28:03.978Z,3.2
2023-01-30T15:33:03.195Z,3.2
2023-01-30T15:38:03.343Z,3.1
2023-01-30T15:43:03.130Z,3.1
2023-01-30T15:48:03.120Z,3
2023-01-30T15:53:03.128Z,2.9
2023-01-30T15:58:03.154Z,2.9
2023-01-30T16:03:03.199Z,2.9
2023-01-30T16:08:03.398Z,2.9
2023-01-30T16:13:03.201Z,2.9
2023-01-30T16:18:05.608Z,2.8
2023-01-30T16:35:46.923Z,2.9
2023-01-30T16:40:30.769Z,2.9
2023-01-30T16:45:30.652Z,2.9
2023-01-30T16:50:38.938Z,2.9
2023-01-30T16:55:30.644Z,2.8
2023-01-30T17:00:30.360Z,2.8
2023-01-30T17:05:31.016Z,2.8
2023-01-30T17:10:30.409Z,2.9
2023-01-30T17:15:30.574Z,2.9
2023-01-30T17:20:32.768Z,2.9
2023-01-30T17:25:30.602Z,2.9
2023-01-30T17:30:30.246Z,2.9
2023-01-30T17:35:35.019Z,3
2023-01-30T17:40:30.336Z,3
2023-01-30T17:45:30.362Z,3
2023-01-30T17:50:32.622Z,3
2023-01-30T17:55:30.579Z,3
2023-01-30T18:00:30.324Z,3.1
2023-01-30T18:05:35.726Z,3.1
2023-01-30T18:10:30.433Z,3.1
2023-01-30T18:15:30.366Z,3.1
2023-01-30T18:20:32.632Z,3.1
2023-01-30T18:25:30.326Z,3
2023-01-30T18:30:30.399Z,3
2023-01-30T18:35:35.246Z,2.9
2023-01-30T18:40:30.403Z,2.9
2023-01-30T18:45:30.574Z,2.9
2023-01-30T18:50:32.758Z,2.9
2023-01-30T18:55:30.304Z,3
2023-01-30T19:00:30.305Z,2.9
2023-01-30T19:05:32.573Z,2.9
2023-01-30T19:10:30.359Z,3
2023-01-30T19:15:30.638Z,2.9
2023-01-30T19:20:33.182Z,3
2023-01-30T19:25:30.610Z,3
2023-01-30T19:30:30.380Z,3
2023-01-30T19:35:38.866Z,3.1
2023-01-30T19:40:30.504Z,2.9
2023-01-30T19:45:30.289Z,2.9
2023-01-30T19:55:30.339Z,2.8
2023-01-30T20:00:30.627Z,2.9
2023-01-30T20:05:32.815Z,2.8
2023-01-30T20:10:30.411Z,2.9
2023-01-30T20:15:30.511Z,3
2023-01-30T20:20:33.272Z,2.9
2023-01-30T20:25:30.635Z,2.8
2023-01-30T20:30:30.441Z,2.8
2023-01-30T20:35:37.188Z,2.8
2023-01-30T20:40:30.388Z,2.9
2023-01-30T20:45:30.367Z,2.9
2023-01-30T20:50:34.090Z,2.9
2023-01-30T20:55:30.439Z,2.9
2023-01-30T21:00:30.797Z,2.9
2023-01-30T21:05:33.146Z,2.9
2023-01-30T21:10:30.643Z,2.9
2023-01-30T21:15:30.346Z,2.9
2023-01-30T21:20:33.187Z,2.9
2023-01-30T21:25:30.404Z,3
2023-01-30T21:30:30.374Z,3
2023-01-30T21:40:30.610Z,3.1
2023-01-30T21:45:30.323Z,3
2023-01-30T21:50:34.408Z,3
2023-01-30T21:55:30.411Z,3.1
2023-01-30T22:00:30.348Z,3
2023-01-30T22:05:33.114Z,3
2023-01-30T22:10:30.326Z,2.9
2023-01-30T22:15:30.551Z,3
2023-01-30T22:25:30.392Z,2.9
2023-01-30T22:30:30.294Z,3
2023-01-30T22:35:33.321Z,2.9
2023-01-30T22:40:30.421Z,3
2023-01-30T22:45:30.530Z,3.1
2023-01-30T22:50:34.469Z,3
2023-01-30T22:55:30.615Z,2.9
2023-01-30T23:00:30.351Z,3
2023-01-30T23:05:33.326Z,2.9
2023-01-30T23:10:30.338Z,2.9
2023-01-30T23:15:30.344Z,2.9
2023-01-30T23:20:36.753Z,3
2023-01-30T23:25:30.748Z,3.1
2023-01-30T23:30:30.355Z,2.9
2023-01-30T23:35:36.621Z,3
2023-01-30T23:40:30.381Z,2.9
2023-01-30T23:45:30.346Z,3
2023-01-30T23:50:33.817Z,3
2023-01-30T23:55:32.023Z,3.1
